• Join FlightAware (Why Join?)
  • Login
  • US Flag 
10:11PM EST


 

Airport Tracker/Info


-or-


 

Live Flight TrackerFlight Track Log ✈ JAI581 ✈ 25-Apr-2013 ✈ OMAA / AUH - VIDP / DEL

Flight Track Log - Related Links

Times and Time Zones

All times are in EDT time to prevent confusion due to time zone crossing. See the JAI581 flight status page for this flight to view local times or setup timezone preferences in your user account.

Time Position Orientation Groundspeed Altitude Reporting Facility
EDT Latitude Longitude Course Direction KTS MPH feet Rate Location/Type
05:20PM 24.4200 54.6700 123° Southeast 177 204 1,000  Level FlightAware
05:21PM 24.3920 54.7140 125° Southeast 239 275 2,000 720 Climbing FlightAware
05:21PM 24.3770 54.7350 128° Southeast 239 275 2,000 1,920 Level FlightAware
05:22PM 24.3520 54.7690 129° Southeast 242 278 3,800 1,140 Climbing FlightAware
05:24PM 24.4022 54.9522 73° East  Level Estimated
05:25PM 24.4328 55.0645 73° East  Level Estimated
05:26PM 24.4634 55.1768 73° East  Level Estimated
05:27PM 24.4939 55.2891 73° East  Level Estimated
05:28PM 24.5242 55.4015 73° East  Level Estimated
05:29PM 24.5545 55.5140 73° East  Level Estimated
05:30PM 24.5848 55.6265 74° East  Level Estimated
05:31PM 24.6149 55.7391 74° East  Level Estimated
05:32PM 24.6449 55.8517 74° East  Level Estimated
05:33PM 24.6749 55.9644 74° East  Level Estimated
05:34PM 24.7048 56.0771 74° East  Level Estimated
05:35PM 24.7346 56.1899 74° East  Level Estimated
05:36PM 24.7643 56.3028 74° East  Level Estimated
05:37PM 24.7939 56.4157 74° East  Level Estimated
05:38PM 24.8235 56.5286 74° East  Level Estimated
05:39PM 24.8529 56.6417 74° East  Level Estimated
05:40PM 24.8823 56.7547 74° East  Level Estimated
05:41PM 24.9116 56.8678 74° East  Level Estimated
05:42PM 24.9408 56.9810 74° East  Level Estimated
05:43PM 24.9699 57.0942 74° East  Level Estimated
05:44PM 24.9989 57.2075 74° East  Level Estimated
05:45PM 25.0279 57.3208 74° East  Level Estimated
05:46PM 25.0567 57.4342 74° East  Level Estimated
05:47PM 25.0855 57.5476 74° East  Level Estimated
05:48PM 25.1142 57.6611 74° East  Level Estimated
05:49PM 25.1428 57.7747 74° East  Level Estimated
05:50PM 25.1713 57.8882 74° East  Level Estimated
05:50PM 23.6330 58.5090 74° East 526 605 35,000  Level FlightAware
05:51PM 23.6500 58.6110 80° East 527 606 35,000  Level FlightAware
05:51PM 23.6700 58.7350 80° East 527 606 35,000  Level FlightAware
05:52PM 23.6870 58.8340 79° East 528 608 35,000  Level FlightAware
05:53PM 23.7010 58.9230 80° East 528 608 35,000  Level FlightAware
05:53PM 23.7160 59.0130 80° East 528 608 35,000  Level FlightAware
05:54PM 23.7340 59.1240 80° East 528 608 35,000  Level FlightAware
05:55PM 23.7480 59.2140 80° East 528 608 35,000  Level FlightAware
05:55PM 23.7620 59.3030 80° East 528 608 35,000  Level FlightAware
05:56PM 23.7770 59.3920 80° East 528 608 35,000  Level FlightAware
05:57PM 23.7910 59.4820 80° East 528 608 35,000  Level FlightAware
05:58PM 23.8090 59.5940 80° East 528 608 35,000  Level FlightAware
05:58PM 23.8240 59.6830 80° East 528 608 35,000  Level FlightAware
05:59PM 23.8380 59.7720 80° East 528 608 35,000  Level FlightAware
06:00PM 23.8530 59.8620 80° East 528 608 35,000  Level FlightAware
06:00PM 23.8670 59.9510 80° East 528 608 35,000  Level FlightAware
06:01PM 23.8850 60.0630 80° East 528 608 35,000  Level FlightAware
06:04PM 23.9746 60.3234 69° East  Level Estimated
06:05PM 24.0121 60.4327 69° East  Level Estimated
06:06PM 24.0495 60.5421 69° East  Level Estimated
06:07PM 24.0869 60.6516 69° East  Level Estimated
06:08PM 24.1241 60.7611 70° East  Level Estimated
06:09PM 24.1613 60.8707 70° East  Level Estimated
06:10PM 24.1984 60.9804 70° East  Level Estimated
06:11PM 24.2354 61.0901 70° East  Level Estimated
06:12PM 24.2724 61.1999 70° East  Level Estimated
06:13PM 24.3092 61.3098 70° East  Level Estimated
06:14PM 24.3460 61.4197 70° East  Level Estimated
06:15PM 24.3827 61.5297 70° East  Level Estimated
06:16PM 24.4193 61.6398 70° East  Level Estimated
06:17PM 24.4537 61.7434 70° East  Level Estimated
06:18PM 24.4880 61.8471 70° East  Level Estimated
06:19PM 24.5223 61.9508 70° East  Level Estimated
06:20PM 24.5565 62.0546 70° East  Level Estimated
06:21PM 24.5906 62.1585 70° East  Level Estimated
06:22PM 24.6246 62.2624 70° East  Level Estimated
06:22PM 24.5200 63.5330 70° East 509 586 35,000  Level FlightAware
06:23PM 24.5430 63.6540 78° East 510 587 35,000  Level FlightAware
06:24PM 24.5650 63.7700 78° East 509 586 35,000  Level FlightAware
06:24PM 24.5830 63.8650 78° East 509 586 35,000  Level FlightAware
06:25PM 24.6060 63.9830 78° East 510 587 35,000  Level FlightAware
06:26PM 24.6250 64.0810 78° East 510 587 35,000  Level FlightAware
06:27PM 24.6450 64.1870 78° East 511 588 35,000  Level FlightAware
06:27PM 24.6670 64.3030 78° East 512 589 35,000  Level FlightAware
06:28PM 24.6860 64.4070 79° East 512 589 35,000  Level FlightAware
06:29PM 24.7050 64.5080 78° East 512 589 35,000  Level FlightAware
06:29PM 24.7260 64.6200 78° East 511 588 35,000  Level FlightAware
06:30PM 24.7450 64.7210 78° East 511 588 35,000  Level FlightAware
06:31PM 24.7670 64.8390 78° East 513 590 35,000  Level FlightAware
06:31PM 24.7860 64.9420 78° East 512 589 35,000  Level FlightAware
06:32PM 24.8040 65.0430 79° East 512 589 35,000  Level FlightAware
06:33PM 24.8250 65.1560 78° East 513 590 35,000  Level FlightAware
06:34PM 24.8440 65.2580 78° East 513 590 35,000  Level FlightAware
06:34PM 24.8640 65.3710 79° East 514 592 35,000  Level FlightAware
06:35PM 24.8840 65.4800 79° East 515 593 35,000  Level FlightAware
06:36PM 24.9020 65.5810 79° East 514 592 35,000  Level FlightAware
06:36PM 24.9220 65.6950 79° East 515 593 35,000  Level FlightAware
06:37PM 24.9410 65.7960 78° East 516 594 35,000  Level FlightAware
06:38PM 24.9620 65.9150 79° East 516 594 35,000  Level FlightAware
06:38PM 24.9800 66.0200 79° East 517 595 35,000  Level FlightAware
06:39PM 24.9980 66.1230 79° East 517 595 35,000  Level FlightAware
06:40PM 25.0180 66.2360 79° East 517 595 35,000  Level FlightAware
06:41PM 25.0360 66.3400 79° East 518 596 35,000  Level FlightAware
06:41PM 25.0570 66.4570 79° East 518 596 35,000  Level FlightAware
06:42PM 25.0740 66.5600 80° East 518 596 35,000  Level FlightAware
06:43PM 25.0920 66.6640 79° East 518 596 35,000  Level FlightAware
06:43PM 25.1120 66.7800 79° East 519 597 35,000  Level FlightAware
06:44PM 25.1300 66.8880 80° East 520 598 35,000  Level FlightAware
06:45PM 25.1480 66.9910 79° East 519 597 35,000  Level FlightAware
06:45PM 25.1680 67.1070 79° East 519 597 35,000  Level FlightAware
06:46PM 25.1850 67.2110 80° East 519 597 35,000  Level FlightAware
06:47PM 25.2020 67.3150 80° East 520 598 35,000  Level FlightAware
06:48PM 25.2380 67.4270 70° East 513 590 35,000  Level FlightAware
06:48PM 25.3000 67.5040 48° Northeast 502 578 35,000  Level FlightAware
06:49PM 25.3810 67.5750 38° Northeast 496 571 35,000  Level FlightAware
06:50PM 25.4520 67.6370 38° Northeast 496 571 35,000  Level FlightAware
06:50PM 25.5260 67.7010 38° Northeast 495 570 35,000  Level FlightAware
06:51PM 25.6050 67.7690 38° Northeast 494 568 35,000  Level FlightAware
06:52PM 25.6780 67.8320 38° Northeast 493 567 35,000  Level FlightAware
06:52PM 25.7600 67.9040 38° Northeast 491 565 35,000  Level FlightAware
06:53PM 25.8320 67.9660 38° Northeast 490 564 35,000  Level FlightAware
06:54PM 25.9030 68.0280 38° Northeast 487 560 35,000  Level FlightAware
06:55PM 25.9820 68.0970 38° Northeast 484 557 35,000  Level FlightAware
06:55PM 26.0520 68.1580 38° Northeast 483 556 35,000  Level FlightAware
06:56PM 26.1280 68.2240 38° Northeast 482 555 35,000  Level FlightAware
06:57PM 26.2000 68.2880 39° Northeast 485 558 35,000  Level FlightAware
06:57PM 26.2710 68.3510 39° Northeast 485 558 35,000  Level FlightAware
06:58PM 26.3520 68.4230 39° Northeast 486 559 35,000  Level FlightAware
06:59PM 26.4200 68.4840 39° Northeast 486 559 35,000  Level FlightAware
06:59PM 26.5010 68.5570 39° Northeast 484 557 35,000 180 Level FlightAware
07:00PM 26.5680 68.6180 39° Northeast 491 565 35,300 300 Climbing FlightAware
07:01PM 26.6360 68.6770 38° Northeast 494 568 35,400 660 Climbing FlightAware
07:02PM 26.7160 68.7510 40° Northeast 487 560 36,300 600 Climbing FlightAware
07:02PM 26.7760 68.8050 39° Northeast 487 560 36,300 480 Level FlightAware
07:03PM 26.8680 68.8890 39° Northeast 485 558 37,000 480 Climbing FlightAware
07:04PM 26.9310 68.9460 39° Northeast 487 560 37,000  Level FlightAware
07:04PM 26.9900 69.0000 39° Northeast 487 560 37,000  Level FlightAware
07:05PM 27.0500 69.0540 39° Northeast 487 560 37,000  Level FlightAware
07:06PM 27.1100 69.1080 39° Northeast 487 560 37,000  Level FlightAware
07:06PM 27.1840 69.1760 39° Northeast 487 560 37,000  Level FlightAware
07:07PM 27.2440 69.2300 39° Northeast 487 560 37,000  Level FlightAware
07:08PM 27.3030 69.2840 39° Northeast 487 560 37,000  Level FlightAware
07:08PM 27.3630 69.3390 39° Northeast 487 560 37,000  Level FlightAware
07:09PM 27.5280 69.4920 39° Northeast 500 575 37,000  Level FlightAware
07:10PM 27.5970 69.5550 39° Northeast 501 577 37,000  Level FlightAware
07:11PM 27.6740 69.6270 40° Northeast 501 577 37,000  Level FlightAware
07:11PM 27.7360 69.6830 39° Northeast 501 577 37,000  Level FlightAware
07:12PM 27.7970 69.7390 39° Northeast 501 577 37,000  Level FlightAware
07:13PM 27.8580 69.7950 39° Northeast 501 577 37,000  Level FlightAware
07:13PM 27.9350 69.8650 39° Northeast 501 577 37,000  Level FlightAware
07:14PM 27.9960 69.9210 39° Northeast 501 577 37,000  Level FlightAware
07:15PM 28.0570 69.9770 39° Northeast 501 577 37,000  Level FlightAware
07:15PM 28.1180 70.0330 39° Northeast 501 577 37,000  Level FlightAware
07:16PM 28.1950 70.1040 39° Northeast 501 577 37,000  Level FlightAware
07:17PM 28.2560 70.1600 39° Northeast 501 577 37,000  Level FlightAware
07:18PM 28.3170 70.2160 39° Northeast 501 577 37,000  Level FlightAware
07:18PM 28.3790 70.2730 39° Northeast 501 577 37,000  Level FlightAware
07:19PM 28.4400 70.3290 39° Northeast 501 577 37,000  Level FlightAware
07:20PM 28.5160 70.4000 39° Northeast 501 577 37,000 -240 Level FlightAware
07:22PM 28.5222 70.5961 88° East  Level Estimated
07:23PM 28.5256 70.7103 88° East  Level Estimated
07:24PM 28.5290 70.8245 88° East  Level Estimated
07:25PM 28.5322 70.9388 88° East  Level Estimated
07:26PM 28.5354 71.0530 88° East  Level Estimated
07:27PM 28.5385 71.1673 88° East  Level Estimated
07:28PM 28.5415 71.2816 88° East  Level Estimated
07:28PM 28.4680 72.1580 88° East 518 596 35,000  Level FlightAware
07:28PM 28.4750 72.2470 85° East 516 594 35,000  Level FlightAware
07:29PM 28.4580 72.3960 97° East 512 589 35,000  Level FlightAware
07:30PM 28.4450 72.4860 99° East 512 589 35,000  Level FlightAware
07:31PM 28.4270 72.6040 100° East 511 588 35,000  Level FlightAware
07:31PM 28.4130 72.6950 100° East 511 588 35,000  Level FlightAware
07:32PM 28.3860 72.8700 100° East 512 589 35,000  Level FlightAware
07:33PM 28.3690 72.9790 100° East 512 589 35,000  Level FlightAware
07:34PM 28.3520 73.0920 100° East 511 588 35,000  Level FlightAware
07:34PM 28.3350 73.2010 100° East 510 587 35,000  Level FlightAware
07:35PM 28.3160 73.3210 100° East 509 586 35,000  Level FlightAware
07:36PM 28.3030 73.4050 100° East 509 586 35,000  Level FlightAware
07:37PM 28.2860 73.5150 100° East 509 586 35,000  Level FlightAware
07:37PM 28.2670 73.6280 101° East 508 585 35,000  Level FlightAware
07:38PM 28.2540 73.7170 99° East 508 585 35,000  Level FlightAware
07:39PM 28.2360 73.8230 101° East 507 583 35,000  Level FlightAware
07:39PM 28.2180 73.9340 100° East 509 586 35,000  Level FlightAware
07:40PM 28.2030 74.0240 101° East 511 588 35,000  Level FlightAware
07:41PM 28.1870 74.1300 100° East 513 590 35,000  Level FlightAware
07:41PM 28.1730 74.2200 100° East 513 590 35,000  Level FlightAware
07:42PM 28.1960 74.3770 81° East 516 594 35,000  Level FlightAware
07:43PM 28.1990 74.4970 88° East 514 592 35,000  Level FlightAware
07:44PM 28.2010 74.6120 89° East 514 592 35,000  Level FlightAware
07:44PM 28.2040 74.7230 88° East 514 592 35,000 -120 Level FlightAware
07:45PM 28.2060 74.8340 89° East 511 588 34,900 -1,140 Descending FlightAware
07:46PM 28.2090 74.9720 89° East 511 588 33,400 -1,380 Descending FlightAware
07:46PM 28.2110 75.0620 89° East 483 556 33,000 -1,020 Descending FlightAware
07:47PM 28.2130 75.1630 89° East 465 535 32,100 -1,500 Descending FlightAware
07:48PM 28.2150 75.2600 89° East 450 518 31,000 -1,620 Descending FlightAware
07:48PM 28.2160 75.3450 89° East 441 507 30,000 -1,740 Descending FlightAware
07:49PM 28.2180 75.4410 89° East 435 501 28,700 -2,040 Descending FlightAware
07:50PM 28.2200 75.5490 89° East 435 501 27,000 -1,980 Descending FlightAware
07:51PM 28.2210 75.6350 89° East 425 489 25,800 -1,920 Descending FlightAware
07:51PM 28.2230 75.7450 89° East 416 479 24,300 -2,220 Descending FlightAware
07:52PM 28.2240 75.8320 89° East 416 479 22,700 -2,400 Descending FlightAware
07:53PM 28.2260 75.9230 89° East 417 480 21,100 -2,100 Descending FlightAware
07:53PM 28.2270 76.0010 89° East 410 472 19,900 -1,920 Descending FlightAware
07:54PM 28.2280 76.0870 89° East 403 464 18,600 -1,920 Descending FlightAware
07:55PM 28.2280 76.1710 90° East 395 455 17,400 -1,920 Descending FlightAware
07:55PM 28.2290 76.2550 89° East 385 443 16,100 -1,860 Descending FlightAware
07:56PM 28.2450 76.3660 81° East 370 426 14,500 -1,740 Descending FlightAware
07:57PM 28.2560 76.4260 78° East 366 421 13,500 -1,800 Descending FlightAware
07:58PM 28.2740 76.5330 79° East 358 412 11,700 -1,680 Descending FlightAware
07:58PM 28.2880 76.6120 79° East 348 400 10,700 -1,080 Descending FlightAware
07:59PM 28.2990 76.6770 79° East 320 368 10,300 -900 Descending FlightAware
08:00PM 28.3080 76.7290 79° East 311 358 9,700 -1,020 Descending FlightAware
08:00PM 28.3160 76.7770 79° East 292 336 9,300 -780 Descending FlightAware
08:01PM 28.3220 76.8090 78° East 285 328 9,000 -360 Descending FlightAware
08:01PM 28.3290 76.8490 79° East 282 325 9,000 -240 Level FlightAware
08:01PM 28.3400 76.8910 73° East 282 325 8,800 -300 Descending FlightAware
08:02PM 28.3430 76.9000 69° East 282 325 8,800 -1,080 Level FlightAware
08:02PM 28.3560 76.9480 73° East 278 320 8,100 -1,020 Descending FlightAware
08:03PM 28.3690 76.9910 71° East 269 310 7,700 -720 Descending FlightAware
08:03PM 28.3850 77.0450 71° East 254 292 7,200 -780 Descending FlightAware
08:04PM 28.3960 77.0820 71° East 248 285 6,800 -900 Descending FlightAware
08:05PM 28.4110 77.1280 70° East 244 281 6,200 -1,080 Descending FlightAware
08:05PM 28.4240 77.1700 71° East 239 275 5,600 -1,140 Descending FlightAware
08:05PM 28.4330 77.1990 71° East 236 272 5,200 -840 Descending FlightAware
08:06PM 28.4410 77.2250 71° East 235 270 4,900 -1,200 Descending FlightAware
08:06PM 28.4530 77.2620 70° East 232 267 4,300 -1,200 Descending FlightAware
08:06PM 28.4650 77.2730 39° Northeast 222 255 4,200 -600 Descending FlightAware
08:07PM 28.4870 77.2830 22° Northeast 206 237 3,900 -720 Descending FlightAware
08:07PM 28.5030 77.2880 15° North 199 229 3,700 -960 Descending FlightAware
08:08PM 28.5230 77.2710 323° Northwest 195 224 3,200 -840 Descending FlightAware
08:08PM 28.5290 77.2490 287° West 188 216 3,000 -780 Descending FlightAware
08:09PM 28.5360 77.2210 286° West 180 207 2,500 -900 Descending FlightAware
08:09PM 28.5420 77.1940 284° West 170 196 2,100 -900 Descending FlightAware
08:09PM 28.5470 77.1720 285° West 166 191 1,700 -900 Descending FlightAware
08:10PM 28.5530 77.1460 285° West 170 196 1,300 -600 Descending FlightAware
08:10PM 28.5540 77.1400 281° West 170 196 1,200 -240 Descending FlightAware
08:22PM 28.5665 77.1031 99° East  Level Estimated
08:23PM 28.5665 77.1031 270° West  Level Estimated
08:24PM 28.5665 77.1031 270° West  Level Estimated
08:25PM 28.5665 77.1031 270° West  Level Estimated
08:26PM 28.5665 77.1031 270° West  Level Estimated
08:27PM 28.5665 77.1031 270° West  Level Estimated
08:28PM 28.5665 77.1031 270° West  Level Estimated
08:29PM 28.5665 77.1031 270° West  Level Estimated
08:30PM 28.5665 77.1031 270° West  Level Estimated
08:31PM 28.5665 77.1031 270° West  Level Estimated
08:32PM 28.5665 77.1031 270° West  Level Estimated
08:33PM 28.5665 77.1031 270° West  Level Estimated
08:34PM 28.5665 77.1031 270° West  Level Estimated
08:35PM 28.5665 77.1031 270° West  Level Estimated
08:36PM 28.5665 77.1031 270° West  Level Estimated
08:37PM 28.5665 77.1031 270° West  Level Estimated
08:38PM 28.5665 77.1031 270° West  Level Estimated
08:39PM 28.5665 77.1031 270° West  Level Estimated
08:40PM 28.5665 77.1031 270° West  Level Estimated
08:41PM 28.5665 77.1031 270° West  Level Estimated